createdAt,value
2023-05-24T00:00:09.526Z,16.73
2023-05-24T00:02:58.028Z,16.73
2023-05-24T00:05:26.748Z,16.72
2023-05-24T00:07:54.519Z,16.72
2023-05-24T00:10:22.272Z,16.72
2023-05-24T00:12:49.955Z,16.72
2023-05-24T00:15:17.587Z,16.73
2023-05-24T00:17:45.718Z,16.71
2023-05-24T00:20:14.180Z,16.69
2023-05-24T00:22:42.467Z,16.68
2023-05-24T00:25:10.110Z,16.67
2023-05-24T00:27:37.985Z,16.66
2023-05-24T00:30:07.280Z,16.66
2023-05-24T00:32:34.969Z,16.65
2023-05-24T00:35:04.927Z,16.67
2023-05-24T00:37:33.043Z,16.67
2023-05-24T00:40:00.672Z,16.67
2023-05-24T00:42:29.146Z,16.67
2023-05-24T00:44:56.973Z,16.67
2023-05-24T00:47:24.719Z,16.68
2023-05-24T00:49:52.486Z,16.70
2023-05-24T00:52:20.808Z,16.69
2023-05-24T00:54:50.662Z,16.65
2023-05-24T00:57:18.909Z,16.61
2023-05-24T00:59:46.532Z,16.60
2023-05-24T01:02:14.332Z,16.59
2023-05-24T01:04:41.992Z,16.55
2023-05-24T01:07:23.441Z,16.54
2023-05-24T01:10:03.433Z,16.54
2023-05-24T01:12:46.816Z,16.54
2023-05-24T01:15:46.505Z,16.55
2023-05-24T01:18:26.087Z,16.54
2023-05-24T01:21:06.653Z,16.54
2023-05-24T01:23:37.326Z,16.54
2023-05-24T01:26:37.013Z,16.54
2023-05-24T01:29:05.682Z,16.54
2023-05-24T01:31:34.274Z,16.51
2023-05-24T01:34:01.963Z,16.50
2023-05-24T01:36:29.598Z,16.49
2023-05-24T01:38:57.365Z,16.47
2023-05-24T01:41:44.238Z,16.45
2023-05-24T01:44:43.510Z,16.45
2023-05-24T01:47:35.430Z,16.44
2023-05-24T01:50:29.146Z,16.43
2023-05-24T01:53:04.303Z,16.42
2023-05-24T01:55:34.414Z,16.40
2023-05-24T01:58:04.631Z,16.37
2023-05-24T02:00:33.905Z,16.35
2023-05-24T02:03:03.376Z,16.33
2023-05-24T02:05:34.417Z,16.31
2023-05-24T02:08:06.468Z,16.28
2023-05-24T02:10:34.433Z,16.25
2023-05-24T02:13:02.024Z,16.22
2023-05-24T02:15:30.608Z,16.18
2023-05-24T02:18:01.256Z,16.18
2023-05-24T02:20:31.271Z,16.16
2023-05-24T02:23:00.249Z,16.13
2023-05-24T02:25:27.942Z,16.12
2023-05-24T02:27:55.674Z,16.11
2023-05-24T02:30:23.405Z,16.12
2023-05-24T02:32:51.382Z,16.11
2023-05-24T02:35:20.627Z,16.11
2023-05-24T02:37:48.245Z,16.08
2023-05-24T02:40:15.935Z,16.07
2023-05-24T02:42:43.707Z,16.07
2023-05-24T02:45:11.504Z,16.06
2023-05-24T02:47:39.154Z,16.07
2023-05-24T02:50:07.721Z,16.07
2023-05-24T02:52:36.170Z,16.07
2023-05-24T02:55:04.660Z,16.06
2023-05-24T02:57:34.089Z,16.05
2023-05-24T03:00:02.061Z,16.06
2023-05-24T03:02:30.443Z,16.07
2023-05-24T03:04:58.988Z,16.05
2023-05-24T03:07:26.752Z,16.07
2023-05-24T03:09:54.862Z,16.08
2023-05-24T03:12:22.584Z,16.10
2023-05-24T03:14:50.299Z,16.11
2023-05-24T03:17:18.062Z,16.13
2023-05-24T03:19:45.727Z,16.17
2023-05-24T03:22:13.882Z,16.18
2023-05-24T03:24:41.713Z,16.18
2023-05-24T03:27:09.590Z,16.19
2023-05-24T03:29:37.301Z,16.19
2023-05-24T03:32:05.665Z,16.19
2023-05-24T03:34:33.420Z,16.18
2023-05-24T03:37:01.327Z,16.17
2023-05-24T03:39:29.133Z,16.18
2023-05-24T03:42:05.640Z,16.20
2023-05-24T03:44:33.332Z,16.19
2023-05-24T03:47:01.373Z,16.20
2023-05-24T03:49:29.088Z,16.20
2023-05-24T03:51:56.942Z,16.22
2023-05-24T03:54:24.535Z,16.25
2023-05-24T03:56:53.474Z,16.28
2023-05-24T03:59:22.321Z,16.32
2023-05-24T04:01:52.052Z,16.35
2023-05-24T04:04:20.346Z,16.37
2023-05-24T04:06:49.597Z,16.36
2023-05-24T04:09:17.236Z,16.35
2023-05-24T04:11:44.876Z,16.36
2023-05-24T04:14:12.673Z,16.36
2023-05-24T04:16:41.529Z,16.36
2023-05-24T04:19:09.206Z,16.35
2023-05-24T04:21:38.074Z,16.31
2023-05-24T04:24:06.995Z,16.29
2023-05-24T04:26:35.172Z,16.30
2023-05-24T04:29:04.174Z,16.33
2023-05-24T04:31:33.383Z,16.35
2023-05-24T04:34:02.023Z,16.36
2023-05-24T04:36:33.858Z,16.36
2023-05-24T04:39:04.844Z,16.38
2023-05-24T04:41:33.214Z,16.44
2023-05-24T04:44:00.931Z,16.49
2023-05-24T04:46:28.958Z,16.58
2023-05-24T04:48:56.752Z,16.69
2023-05-24T04:51:24.466Z,16.80
2023-05-24T04:53:52.103Z,16.90
2023-05-24T04:56:19.816Z,16.98
2023-05-24T04:58:47.864Z,17.07
2023-05-24T05:01:15.791Z,17.18
2023-05-24T05:03:45.813Z,17.28
2023-05-24T05:06:14.004Z,17.38
2023-05-24T05:08:41.692Z,17.48
2023-05-24T05:11:09.634Z,17.56
2023-05-24T05:13:37.250Z,17.69
2023-05-24T05:16:05.320Z,17.81
2023-05-24T05:18:33.879Z,17.97
2023-05-24T05:21:02.994Z,18.10
2023-05-24T05:23:31.251Z,18.25
2023-05-24T05:25:58.959Z,18.37
2023-05-24T05:28:26.549Z,18.50
2023-05-24T05:30:54.229Z,18.64
2023-05-24T05:33:21.964Z,18.76
2023-05-24T05:35:49.739Z,18.91
2023-05-24T05:38:17.612Z,19.07
2023-05-24T05:40:45.276Z,19.22
2023-05-24T05:43:12.983Z,19.36
2023-05-24T05:45:40.608Z,19.47
2023-05-24T05:48:08.354Z,19.59
2023-05-24T05:50:36.164Z,19.70
2023-05-24T05:53:05.082Z,19.81
2023-05-24T05:55:32.948Z,19.90
2023-05-24T05:58:01.198Z,19.96
2023-05-24T06:00:28.938Z,20.04
2023-05-24T06:02:56.727Z,20.12
2023-05-24T06:05:24.787Z,20.24
2023-05-24T06:07:52.430Z,20.35
2023-05-24T06:10:20.072Z,20.44
2023-05-24T06:12:47.984Z,20.54
2023-05-24T06:15:29.129Z,20.63
2023-05-24T06:17:57.513Z,20.75
2023-05-24T06:20:25.636Z,20.85
2023-05-24T06:22:53.686Z,20.96
2023-05-24T06:25:22.765Z,21.06
2023-05-24T06:27:51.586Z,21.16
2023-05-24T06:30:20.484Z,21.25
2023-05-24T06:32:48.404Z,21.35
2023-05-24T06:35:16.717Z,21.44
2023-05-24T06:37:44.419Z,21.53
2023-05-24T06:40:12.853Z,21.59
2023-05-24T06:42:40.745Z,21.62
2023-05-24T06:45:09.281Z,21.62
2023-05-24T06:47:37.182Z,21.66
2023-05-24T06:50:05.866Z,21.73
2023-05-24T06:52:33.557Z,21.82
2023-05-24T06:55:01.240Z,21.89
2023-05-24T06:57:28.902Z,21.98
2023-05-24T06:59:57.046Z,22.06
2023-05-24T07:02:27.440Z,22.11
2023-05-24T07:04:55.474Z,22.14
2023-05-24T07:07:23.086Z,22.15
2023-05-24T07:09:53.034Z,22.18
2023-05-24T07:12:33.647Z,22.20
2023-05-24T07:15:01.769Z,22.21
2023-05-24T07:17:29.604Z,22.23
2023-05-24T07:19:57.456Z,22.26
2023-05-24T07:22:27.189Z,22.28
2023-05-24T07:24:55.791Z,22.31
2023-05-24T07:27:23.882Z,22.41
2023-05-24T07:29:51.615Z,22.54
2023-05-24T07:32:19.335Z,22.66
2023-05-24T07:49:01.651Z,23.90
2023-05-24T07:51:29.284Z,24.22
2023-05-24T07:53:57.261Z,24.26
2023-05-24T07:56:25.455Z,24.28
2023-05-24T07:58:56.729Z,24.30
2023-05-24T08:01:24.328Z,24.35
2023-05-24T08:03:52.831Z,24.39
2023-05-24T08:06:20.988Z,24.49
2023-05-24T08:08:48.696Z,24.58
2023-05-24T08:11:16.686Z,24.66
2023-05-24T08:13:44.975Z,24.71
2023-05-24T08:16:15.331Z,24.73
2023-05-24T08:18:44.747Z,24.70
2023-05-24T08:21:13.122Z,24.72
2023-05-24T08:23:42.421Z,24.78
2023-05-24T08:26:24.143Z,24.81
2023-05-24T08:28:54.938Z,24.87
2023-05-24T08:31:22.745Z,24.90
2023-05-24T08:33:51.303Z,24.94
2023-05-24T08:36:18.998Z,25.00
2023-05-24T08:38:46.716Z,25.08
2023-05-24T08:41:14.327Z,25.14
2023-05-24T08:43:42.581Z,25.18
2023-05-24T08:46:12.440Z,25.29
2023-05-24T08:48:47.080Z,25.43
2023-05-24T08:51:15.891Z,25.57
2023-05-24T08:53:49.162Z,25.65
2023-05-24T08:56:19.385Z,25.65
2023-05-24T08:58:47.436Z,25.63
2023-05-24T09:01:16.693Z,25.62
2023-05-24T09:03:47.304Z,25.63
2023-05-24T09:06:17.805Z,25.68
2023-05-24T09:08:46.102Z,25.75
2023-05-24T09:11:16.329Z,25.79
2023-05-24T09:13:48.596Z,25.80
2023-05-24T09:16:16.735Z,25.87
2023-05-24T09:18:45.673Z,25.93
2023-05-24T09:21:17.745Z,25.97
2023-05-24T09:23:54.963Z,26.08
2023-05-24T09:26:22.676Z,26.20
2023-05-24T09:28:55.016Z,26.27
2023-05-24T09:31:34.214Z,26.36
2023-05-24T09:34:02.542Z,26.45
2023-05-24T09:36:41.404Z,26.53
2023-05-24T09:39:12.793Z,26.63
2023-05-24T09:41:43.518Z,26.80
2023-05-24T09:44:15.261Z,26.96
2023-05-24T09:46:44.470Z,27.15
2023-05-24T09:49:14.325Z,27.27
2023-05-24T09:51:42.952Z,27.29
2023-05-24T09:54:12.769Z,27.22
2023-05-24T09:56:40.479Z,27.05
2023-05-24T09:59:09.700Z,26.99
2023-05-24T10:01:37.603Z,26.97
2023-05-24T10:04:10.137Z,27.01
2023-05-24T10:06:42.788Z,27.06
2023-05-24T10:09:11.298Z,27.14
2023-05-24T10:11:39.829Z,27.18
2023-05-24T10:14:10.100Z,27.19
2023-05-24T10:16:38.315Z,27.17
2023-05-24T10:19:07.081Z,27.13
2023-05-24T10:21:39.695Z,27.10
2023-05-24T10:24:10.997Z,27.13
2023-05-24T10:26:39.950Z,27.17
2023-05-24T10:29:16.345Z,27.27
2023-05-24T10:31:45.358Z,27.34
2023-05-24T10:34:13.769Z,27.42
2023-05-24T10:36:41.443Z,27.55
2023-05-24T10:39:11.779Z,27.65
2023-05-24T10:41:41.754Z,27.73
2023-05-24T10:44:13.795Z,27.78
2023-05-24T10:47:13.096Z,27.76
2023-05-24T10:49:52.774Z,27.72
2023-05-24T10:52:21.264Z,27.69
2023-05-24T10:55:07.675Z,27.64
2023-05-24T10:57:36.549Z,27.70
2023-05-24T11:00:47.530Z,27.82
2023-05-24T11:03:23.418Z,27.92
2023-05-24T11:05:54.410Z,27.95
2023-05-24T11:08:43.588Z,28.05
2023-05-24T11:13:46.335Z,28.34
2023-05-24T11:16:38.103Z,28.37
2023-05-24T11:19:30.876Z,28.35
2023-05-24T11:21:59.642Z,28.28
2023-05-24T11:24:28.861Z,28.28
2023-05-24T11:26:57.847Z,28.27
2023-05-24T11:29:25.625Z,28.31
2023-05-24T11:31:58.074Z,28.38
2023-05-24T11:34:27.302Z,28.43
2023-05-24T11:36:55.626Z,28.56
2023-05-24T11:39:23.583Z,28.64
2023-05-24T11:41:54.200Z,28.66
2023-05-24T11:44:21.995Z,28.67
2023-05-24T11:46:49.628Z,28.68
2023-05-24T11:49:17.950Z,28.67
2023-05-24T11:51:46.076Z,28.54
2023-05-24T11:54:13.752Z,28.35
2023-05-24T11:56:41.537Z,28.26
2023-05-24T11:59:15.471Z,28.30
2023-05-24T12:01:44.339Z,28.48
2023-05-24T12:04:12.911Z,28.60
2023-05-24T12:06:43.060Z,28.74
2023-05-24T12:09:16.674Z,28.84
2023-05-24T12:11:48.056Z,29.00
2023-05-24T12:14:20.169Z,29.22
2023-05-24T12:16:47.880Z,29.40
2023-05-24T12:21:57.872Z,29.79
2023-05-24T12:24:27.182Z,29.93
2023-05-24T12:27:01.972Z,30.00
2023-05-24T12:29:34.893Z,30.10
2023-05-24T12:32:03.038Z,30.18
2023-05-24T12:34:30.712Z,30.21
2023-05-24T12:36:59.451Z,30.24
2023-05-24T12:39:34.135Z,30.26
2023-05-24T12:42:03.650Z,30.19
2023-05-24T12:44:35.309Z,30.05
2023-05-24T12:47:06.458Z,30.04
2023-05-24T12:49:34.565Z,30.48
2023-05-24T12:52:02.415Z,31.07
2023-05-24T12:54:30.562Z,31.80
2023-05-24T12:57:05.193Z,32.26
2023-05-24T12:59:33.811Z,32.50
2023-05-24T13:02:01.860Z,32.71
2023-05-24T13:04:31.771Z,32.88
2023-05-24T13:07:00.230Z,33.36
2023-05-24T13:09:28.227Z,33.37
2023-05-24T13:11:55.987Z,33.07
2023-05-24T13:14:23.713Z,32.70
2023-05-24T13:16:51.588Z,32.40
2023-05-24T13:19:19.400Z,32.10
2023-05-24T13:21:47.081Z,31.99
2023-05-24T13:37:51.068Z,35.21
2023-05-24T13:40:19.084Z,35.67
2023-05-24T13:42:46.976Z,35.45
2023-05-24T13:45:14.642Z,35.25
2023-05-24T13:47:42.953Z,35.26
2023-05-24T13:50:11.164Z,35.41
2023-05-24T13:52:39.543Z,35.83
2023-05-24T13:55:07.890Z,36.58
2023-05-24T13:57:50.532Z,37.37
2023-05-24T14:00:20.158Z,37.79
2023-05-24T14:02:48.425Z,37.80
2023-05-24T14:07:47.672Z,37.72
2023-05-24T14:10:18.015Z,38.08
2023-05-24T14:12:56.147Z,38.82
2023-05-24T14:15:33.175Z,39.90
2023-05-24T14:18:07.390Z,40.81
2023-05-24T14:20:38.058Z,41.63
2023-05-24T14:23:10.197Z,42.23
2023-05-24T14:25:38.213Z,42.34
2023-05-24T14:28:08.350Z,42.64
2023-05-24T14:30:37.822Z,42.96
2023-05-24T14:33:08.011Z,43.28
2023-05-24T14:35:39.348Z,43.65
2023-05-24T14:38:09.106Z,43.84
2023-05-24T14:40:39.778Z,43.89
2023-05-24T14:43:10.080Z,43.60
2023-05-24T14:45:42.074Z,43.44
2023-05-24T14:48:11.356Z,42.87
2023-05-24T14:50:40.798Z,41.59
2023-05-24T14:53:10.862Z,40.20
2023-05-24T14:55:39.187Z,38.81
2023-05-24T14:58:11.316Z,37.65
2023-05-24T15:00:40.229Z,36.64
2023-05-24T15:03:08.885Z,36.33
2023-05-24T15:05:37.229Z,36.62
2023-05-24T15:08:05.889Z,37.09
2023-05-24T15:10:33.682Z,37.52
2023-05-24T15:13:03.542Z,37.98
2023-05-24T15:15:31.521Z,38.53
2023-05-24T15:17:59.873Z,38.92
2023-05-24T15:20:27.827Z,39.17
2023-05-24T15:22:55.740Z,39.47
2023-05-24T15:25:23.460Z,39.75
2023-05-24T15:27:51.218Z,39.96
2023-05-24T15:30:19.904Z,40.06
2023-05-24T15:32:47.662Z,39.71
2023-05-24T15:35:15.898Z,39.22
2023-05-24T15:37:43.625Z,39.11
2023-05-24T15:40:12.410Z,39.20
2023-05-24T15:42:40.128Z,39.51
2023-05-24T15:45:08.692Z,39.67
2023-05-24T15:47:39.666Z,39.73
2023-05-24T15:50:08.679Z,39.66
2023-05-24T15:52:36.660Z,39.90
2023-05-24T15:55:04.831Z,40.11
2023-05-24T15:57:32.616Z,39.94
2023-05-24T16:00:01.216Z,39.24
2023-05-24T16:02:31.549Z,38.33
2023-05-24T16:05:00.565Z,37.40
2023-05-24T16:07:28.238Z,36.55
2023-05-24T16:09:55.945Z,35.74
2023-05-24T16:12:23.776Z,35.00
2023-05-24T16:14:52.173Z,34.44
2023-05-24T16:17:19.845Z,33.90
2023-05-24T16:19:49.314Z,33.58
2023-05-24T16:22:17.435Z,33.32
2023-05-24T16:24:45.144Z,33.28
2023-05-24T16:27:12.950Z,33.59
2023-05-24T16:29:40.673Z,33.91
2023-05-24T16:32:08.978Z,34.08
2023-05-24T16:34:55.041Z,34.21
2023-05-24T16:37:24.390Z,34.19
2023-05-24T16:39:52.056Z,34.01
2023-05-24T16:42:20.045Z,33.77
2023-05-24T16:44:47.930Z,33.55
2023-05-24T16:47:15.787Z,33.29
2023-05-24T16:49:43.542Z,32.90
2023-05-24T16:52:11.193Z,32.59
2023-05-24T16:54:38.914Z,32.34
2023-05-24T16:57:06.576Z,31.95
2023-05-24T16:59:34.582Z,31.47
2023-05-24T17:02:02.448Z,30.73
2023-05-24T17:04:30.519Z,29.83
2023-05-24T17:06:58.590Z,28.92
2023-05-24T17:09:26.391Z,28.16
2023-05-24T17:11:54.791Z,27.48
2023-05-24T17:14:22.702Z,26.97
2023-05-24T17:16:50.768Z,26.46
2023-05-24T17:19:20.829Z,26.07
2023-05-24T17:21:49.114Z,25.72
2023-05-24T17:24:16.913Z,25.47
2023-05-24T17:26:45.279Z,25.27
2023-05-24T17:29:13.359Z,25.02
2023-05-24T17:31:41.533Z,24.78
2023-05-24T17:34:09.376Z,24.51
2023-05-24T17:36:37.559Z,24.24
2023-05-24T17:39:06.555Z,23.94
2023-05-24T17:41:34.174Z,23.71
2023-05-24T17:44:01.992Z,23.47
2023-05-24T17:46:29.771Z,23.25
2023-05-24T17:48:58.333Z,23.05
2023-05-24T17:51:26.152Z,22.90
2023-05-24T17:53:54.404Z,22.75
2023-05-24T17:56:23.178Z,22.56
2023-05-24T17:58:51.763Z,22.41
2023-05-24T18:01:20.054Z,22.26
2023-05-24T18:03:48.615Z,22.12
2023-05-24T18:06:17.200Z,21.96
2023-05-24T18:08:45.456Z,21.83
2023-05-24T18:11:14.005Z,21.66
2023-05-24T18:13:43.037Z,21.51
2023-05-24T18:16:11.847Z,21.39
2023-05-24T18:18:40.004Z,21.22
2023-05-24T18:21:09.426Z,21.06
2023-05-24T18:23:38.042Z,20.92
2023-05-24T18:26:08.071Z,20.82
2023-05-24T18:28:37.458Z,20.73
2023-05-24T18:31:14.327Z,20.64
2023-05-24T18:33:43.049Z,20.54
2023-05-24T18:36:12.369Z,20.41
2023-05-24T18:38:41.205Z,20.27
2023-05-24T18:41:12.492Z,20.10
2023-05-24T18:43:42.706Z,19.99
2023-05-24T18:46:14.678Z,19.89
2023-05-24T18:48:43.250Z,19.79
2023-05-24T18:51:11.732Z,19.74
2023-05-24T18:53:40.558Z,19.65
2023-05-24T18:56:09.253Z,19.57
2023-05-24T18:58:37.560Z,19.49
2023-05-24T19:01:05.495Z,19.42
2023-05-24T19:03:33.476Z,19.37
2023-05-24T19:06:01.360Z,19.33
2023-05-24T19:08:29.234Z,19.32
2023-05-24T19:10:57.508Z,19.29
2023-05-24T19:13:27.304Z,19.27
2023-05-24T19:15:57.240Z,19.23
2023-05-24T19:18:25.730Z,19.16
2023-05-24T19:20:53.688Z,19.08
2023-05-24T19:23:22.383Z,19.03
2023-05-24T19:25:50.965Z,18.94
2023-05-24T19:28:19.520Z,18.89
2023-05-24T19:30:48.482Z,18.82
2023-05-24T19:33:16.937Z,18.75
2023-05-24T19:35:44.765Z,18.68
2023-05-24T19:38:15.013Z,18.62
2023-05-24T19:40:42.825Z,18.54
2023-05-24T19:43:10.735Z,18.44
2023-05-24T19:45:38.317Z,18.37
2023-05-24T19:48:09.339Z,18.33
2023-05-24T19:50:39.258Z,18.30
2023-05-24T19:53:07.170Z,18.27
2023-05-24T19:55:36.427Z,18.20
2023-05-24T19:58:04.862Z,18.16
2023-05-24T20:00:32.488Z,18.11
2023-05-24T20:03:00.789Z,18.07
2023-05-24T20:05:28.736Z,18.02
2023-05-24T20:07:56.430Z,17.95
2023-05-24T20:10:24.958Z,17.86
2023-05-24T20:12:52.886Z,17.80
2023-05-24T20:15:28.850Z,17.74
2023-05-24T20:17:56.741Z,17.70
2023-05-24T20:20:25.849Z,17.66
2023-05-24T20:22:53.603Z,17.61
2023-05-24T20:25:22.013Z,17.55
2023-05-24T20:27:50.199Z,17.48
2023-05-24T20:30:18.431Z,17.41
2023-05-24T20:32:46.322Z,17.34
2023-05-24T20:35:14.035Z,17.30
2023-05-24T20:37:42.188Z,17.26
2023-05-24T20:40:10.316Z,17.25
2023-05-24T20:42:38.020Z,17.20
2023-05-24T20:45:06.462Z,17.15
2023-05-24T20:47:34.172Z,17.10
2023-05-24T20:50:02.278Z,17.06
2023-05-24T20:52:30.050Z,17.01
2023-05-24T20:54:57.650Z,16.94
2023-05-24T20:57:25.310Z,16.88
2023-05-24T20:59:53.429Z,16.84
2023-05-24T21:02:21.164Z,16.79
2023-05-24T21:04:49.545Z,16.75
2023-05-24T21:07:17.117Z,16.72
2023-05-24T21:09:44.712Z,16.68
2023-05-24T21:12:12.637Z,16.63
2023-05-24T21:14:41.506Z,16.57
2023-05-24T21:17:09.302Z,16.52
2023-05-24T21:19:37.098Z,16.47
2023-05-24T21:22:05.050Z,16.42
2023-05-24T21:24:32.675Z,16.37
2023-05-24T21:27:01.256Z,16.33
2023-05-24T21:29:28.880Z,16.28
2023-05-24T21:31:56.548Z,16.21
2023-05-24T21:34:24.265Z,16.17
2023-05-24T21:36:51.893Z,16.17
2023-05-24T21:39:19.516Z,16.16
2023-05-24T21:41:47.140Z,16.15
2023-05-24T21:44:14.822Z,16.13
2023-05-24T21:46:42.485Z,16.12
2023-05-24T21:49:10.325Z,16.12
2023-05-24T21:51:37.990Z,16.08
2023-05-24T21:54:06.161Z,16.03
2023-05-24T21:56:33.808Z,15.99
2023-05-24T21:59:01.451Z,15.95
2023-05-24T22:01:29.132Z,15.90
2023-05-24T22:03:57.325Z,15.85
2023-05-24T22:06:25.615Z,15.80
2023-05-24T22:08:53.469Z,15.81
2023-05-24T22:11:21.378Z,15.82
2023-05-24T22:13:49.005Z,15.79
2023-05-24T22:16:16.818Z,15.75
2023-05-24T22:18:44.517Z,15.69
2023-05-24T22:21:14.262Z,15.62
2023-05-24T22:23:43.977Z,15.55
2023-05-24T22:26:12.736Z,15.47
2023-05-24T22:29:00.504Z,15.41
2023-05-24T22:31:29.413Z,15.33
2023-05-24T22:34:00.947Z,15.28
2023-05-24T22:36:32.985Z,15.25
2023-05-24T22:39:01.565Z,15.18
2023-05-24T22:41:29.390Z,15.11
2023-05-24T22:43:57.398Z,15.08
2023-05-24T22:46:25.397Z,15.01
2023-05-24T22:48:53.043Z,14.91
2023-05-24T22:51:20.708Z,14.81
2023-05-24T22:53:48.569Z,14.72
2023-05-24T22:56:17.797Z,14.65
2023-05-24T22:58:45.649Z,14.58
2023-05-24T23:01:14.557Z,14.52
2023-05-24T23:03:42.322Z,14.47
2023-05-24T23:06:11.845Z,14.42
2023-05-24T23:08:39.689Z,14.39
2023-05-24T23:11:10.311Z,14.36
2023-05-24T23:13:38.055Z,14.32
2023-05-24T23:16:06.105Z,14.28
2023-05-24T23:18:33.789Z,14.23
2023-05-24T23:21:02.913Z,14.19
2023-05-24T23:23:30.497Z,14.15
2023-05-24T23:25:58.179Z,14.08
2023-05-24T23:28:25.842Z,14.01
2023-05-24T23:30:53.751Z,13.87
2023-05-24T23:33:21.552Z,13.77
2023-05-24T23:35:49.293Z,13.74
2023-05-24T23:38:16.938Z,13.74
2023-05-24T23:40:44.615Z,13.80
2023-05-24T23:43:12.230Z,13.85
2023-05-24T23:45:39.814Z,13.87
2023-05-24T23:48:07.486Z,13.93
2023-05-24T23:50:50.291Z,13.98
2023-05-24T23:53:21.760Z,13.93
2023-05-24T23:55:49.526Z,13.84
2023-05-24T23:58:17.239Z,13.75
